createdAt,value
2018-11-05T00:01:21.838Z,20.97
2018-11-05T00:03:56.116Z,26.90
2018-11-05T00:06:30.615Z,20.03
2018-11-05T00:09:08.818Z,19.53
2018-11-05T00:11:43.416Z,25.03
2018-11-05T00:14:17.713Z,19.77
2018-11-05T00:16:52.290Z,18.13
2018-11-05T00:19:26.927Z,21.03
2018-11-05T00:22:01.533Z,21.60
2018-11-05T00:24:36.101Z,18.10
2018-11-05T00:27:11.046Z,21.77
2018-11-05T00:29:45.372Z,19.17
2018-11-05T00:32:20.357Z,17.97
2018-11-05T00:34:54.520Z,22.90
2018-11-05T00:37:29.076Z,20.07
2018-11-05T00:40:05.278Z,20.57
2018-11-05T00:42:40.517Z,19.67
2018-11-05T00:45:15.001Z,19.00
2018-11-05T00:47:49.187Z,21.03
2018-11-05T00:50:24.518Z,20.83
2018-11-05T00:52:59.417Z,29.00
2018-11-05T00:55:33.903Z,21.47
2018-11-05T00:58:08.510Z,20.43
2018-11-05T01:00:43.164Z,19.43
2018-11-05T01:03:17.769Z,23.20
2018-11-05T01:05:52.235Z,20.23
2018-11-05T01:08:26.748Z,21.53
2018-11-05T01:11:01.290Z,21.17
2018-11-05T01:13:35.965Z,19.97
2018-11-05T01:16:10.404Z,22.90
2018-11-05T01:18:45.039Z,21.67
2018-11-05T01:21:19.471Z,23.00
2018-11-05T01:23:53.861Z,19.07
2018-11-05T01:26:28.465Z,23.43
2018-11-05T01:29:03.206Z,22.40
2018-11-05T01:31:37.518Z,18.20
2018-11-05T01:34:12.132Z,19.13
2018-11-05T01:36:46.925Z,17.70
2018-11-05T01:39:21.542Z,24.83
2018-11-05T01:41:56.412Z,16.57
2018-11-05T01:44:30.696Z,18.43
2018-11-05T01:47:05.717Z,17.33
2018-11-05T01:49:39.919Z,13.13
2018-11-05T01:52:14.513Z,14.77
2018-11-05T01:54:49.151Z,13.90
2018-11-05T01:57:23.737Z,15.87
2018-11-05T01:59:58.218Z,15.63
2018-11-05T02:02:32.816Z,17.03
2018-11-05T02:05:08.285Z,17.63
2018-11-05T02:07:44.313Z,14.60
2018-11-05T02:10:18.932Z,13.57
2018-11-05T02:12:53.193Z,14.40
2018-11-05T02:15:27.787Z,13.97
2018-11-05T02:18:02.363Z,13.80
2018-11-05T02:20:36.985Z,16.73
2018-11-05T02:23:11.681Z,14.80
2018-11-05T02:25:46.769Z,15.77
2018-11-05T02:28:21.056Z,15.63
2018-11-05T02:30:55.666Z,14.07
2018-11-05T02:33:30.201Z,15.67
2018-11-05T02:36:05.314Z,14.23
2018-11-05T02:38:39.422Z,17.90
2018-11-05T02:41:14.154Z,16.90
2018-11-05T02:43:48.834Z,11.33
2018-11-05T02:46:23.430Z,12.90
2018-11-05T02:48:58.061Z,13.47
2018-11-05T02:51:32.645Z,15.60
2018-11-05T02:54:07.337Z,11.77
2018-11-05T02:56:41.854Z,15.23
2018-11-05T02:59:16.629Z,15.40
2018-11-05T03:01:51.285Z,15.70
2018-11-05T03:04:25.540Z,18.17
2018-11-05T03:07:00.311Z,17.87
2018-11-05T03:09:34.638Z,18.30
2018-11-05T03:12:09.205Z,21.13
2018-11-05T03:14:44.285Z,17.10
2018-11-05T03:17:19.419Z,17.23
2018-11-05T03:19:53.880Z,16.47
2018-11-05T03:22:28.588Z,16.13
2018-11-05T03:25:03.272Z,13.47
2018-11-05T03:27:38.087Z,13.93
2018-11-05T03:30:15.720Z,15.93
2018-11-05T03:32:50.828Z,15.80
2018-11-05T03:35:25.433Z,11.23
2018-11-05T03:37:59.934Z,13.37
2018-11-05T03:40:34.662Z,11.30
2018-11-05T03:43:09.344Z,11.97
2018-11-05T03:45:43.944Z,13.20
2018-11-05T03:48:18.580Z,16.33
2018-11-05T03:50:53.198Z,12.63
2018-11-05T03:53:27.413Z,35.87
2018-11-05T03:56:01.979Z,19.90
2018-11-05T03:58:36.374Z,33.60
2018-11-05T04:01:10.946Z,10.70
2018-11-05T04:03:45.806Z,8.07
2018-11-05T04:06:20.129Z,8.93
2018-11-05T04:08:54.949Z,32.03
2018-11-05T04:11:30.141Z,10.53
2018-11-05T04:14:05.085Z,19.60
2018-11-05T04:16:39.637Z,13.23
2018-11-05T04:19:13.951Z,9.63
2018-11-05T04:21:49.980Z,9.30
2018-11-05T04:24:24.257Z,12.33
2018-11-05T04:26:58.908Z,8.50
2018-11-05T04:29:33.513Z,9.17
2018-11-05T04:32:08.074Z,21.40
2018-11-05T04:34:42.603Z,8.93
2018-11-05T04:37:17.301Z,10.57
2018-11-05T04:39:51.790Z,18.70
2018-11-05T04:42:26.389Z,9.20
2018-11-05T04:45:01.307Z,14.60
2018-11-05T04:47:35.583Z,8.17
2018-11-05T04:50:11.250Z,9.70
2018-11-05T04:52:45.934Z,11.53
2018-11-05T04:55:20.462Z,12.60
2018-11-05T04:57:55.043Z,10.43
2018-11-05T05:00:29.709Z,10.00
2018-11-05T05:03:04.344Z,8.03
2018-11-05T05:05:38.942Z,8.17
2018-11-05T05:08:13.423Z,10.33
2018-11-05T05:10:48.034Z,8.77
2018-11-05T05:13:22.612Z,7.70
2018-11-05T05:15:57.282Z,6.77
2018-11-05T05:18:31.713Z,6.73
2018-11-05T05:21:06.370Z,6.80
2018-11-05T05:23:40.853Z,6.50
2018-11-05T05:26:15.405Z,5.93
2018-11-05T05:28:49.958Z,5.80
2018-11-05T05:31:24.515Z,5.77
2018-11-05T05:33:59.065Z,6.80
2018-11-05T05:36:33.865Z,8.57
2018-11-05T05:39:09.297Z,8.37
2018-11-05T05:41:44.198Z,6.90
2018-11-05T05:44:18.490Z,7.30
2018-11-05T05:46:53.090Z,7.27
2018-11-05T05:49:27.645Z,5.40
2018-11-05T05:52:02.285Z,5.70
2018-11-05T05:54:36.861Z,5.80
2018-11-05T05:57:11.735Z,6.53
2018-11-05T05:59:46.136Z,6.90
2018-11-05T06:02:20.886Z,5.97
2018-11-05T06:04:55.677Z,5.73
2018-11-05T06:07:30.036Z,6.40
2018-11-05T06:10:04.897Z,8.47
2018-11-05T06:12:39.282Z,7.20
2018-11-05T06:15:15.208Z,6.40
2018-11-05T06:17:49.562Z,8.73
2018-11-05T06:20:24.069Z,6.87
2018-11-05T06:22:58.682Z,6.20
2018-11-05T06:25:33.573Z,6.23
2018-11-05T06:28:07.780Z,8.10
2018-11-05T06:30:42.474Z,5.43
2018-11-05T06:33:17.428Z,7.87
2018-11-05T06:35:51.696Z,5.70
2018-11-05T06:38:26.426Z,8.53
2018-11-05T06:41:01.999Z,6.70
2018-11-05T06:43:36.929Z,7.00
2018-11-05T06:46:11.462Z,5.60
2018-11-05T06:48:46.076Z,7.40
2018-11-05T06:51:20.626Z,8.13
2018-11-05T06:53:55.155Z,5.73
2018-11-05T06:56:29.866Z,6.80
2018-11-05T06:59:04.674Z,5.80
2018-11-05T07:01:39.039Z,7.03
2018-11-05T07:04:13.980Z,7.73
2018-11-05T07:06:48.954Z,10.10
2018-11-05T07:09:23.169Z,7.67
2018-11-05T07:11:57.759Z,8.10
2018-11-05T07:14:32.449Z,7.30
2018-11-05T07:17:07.005Z,7.07
2018-11-05T07:19:41.652Z,8.23
2018-11-05T07:22:16.173Z,8.57
2018-11-05T07:24:50.942Z,9.27
2018-11-05T07:27:25.554Z,6.27
2018-11-05T07:30:00.406Z,13.53
2018-11-05T07:32:34.845Z,7.23
2018-11-05T07:35:11.261Z,9.40
2018-11-05T07:37:46.065Z,7.40
2018-11-05T07:40:20.838Z,7.10
2018-11-05T07:42:55.864Z,7.20
2018-11-05T07:45:30.087Z,19.50
2018-11-05T07:48:04.905Z,13.83
2018-11-05T07:50:39.508Z,9.37
2018-11-05T07:53:14.226Z,12.50
2018-11-05T07:55:48.741Z,15.63
2018-11-05T07:58:23.334Z,13.33
2018-11-05T08:00:58.725Z,12.97
2018-11-05T08:03:35.351Z,12.13
2018-11-05T08:06:13.359Z,12.30
2018-11-05T08:08:50.768Z,12.70
2018-11-05T08:11:26.745Z,11.90
2018-11-05T08:14:03.641Z,10.30
2018-11-05T08:16:39.985Z,9.67
2018-11-05T08:19:16.181Z,10.30
2018-11-05T08:21:50.368Z,18.43
2018-11-05T08:24:25.126Z,9.40
2018-11-05T08:27:00.044Z,14.17
2018-11-05T08:29:34.446Z,11.83
2018-11-05T08:32:09.211Z,13.80
2018-11-05T08:34:44.272Z,9.63
2018-11-05T08:37:18.853Z,13.30
2018-11-05T08:39:53.722Z,12.70
2018-11-05T08:42:28.355Z,13.10
2018-11-05T08:45:03.173Z,8.83
2018-11-05T08:47:37.494Z,13.33
2018-11-05T08:50:14.426Z,11.80
2018-11-05T08:52:48.707Z,13.93
2018-11-05T08:55:24.478Z,11.90
2018-11-05T08:58:00.310Z,13.53
2018-11-05T09:00:40.170Z,18.00
2018-11-05T09:03:15.165Z,14.27
2018-11-05T09:05:49.742Z,14.33
2018-11-05T09:08:24.158Z,13.63
2018-11-05T09:10:59.178Z,10.50
2018-11-05T09:13:33.518Z,10.37
2018-11-05T09:16:08.397Z,13.20
2018-11-05T09:18:43.006Z,23.80
2018-11-05T09:21:18.359Z,17.70
2018-11-05T09:23:53.474Z,13.33
2018-11-05T09:26:28.234Z,12.53
2018-11-05T09:29:02.775Z,15.57
2018-11-05T09:31:37.321Z,11.10
2018-11-05T09:34:12.860Z,13.17
2018-11-05T09:36:47.724Z,14.30
2018-11-05T09:39:22.341Z,16.53
2018-11-05T09:41:57.092Z,9.50
2018-11-05T09:44:31.687Z,10.67
2018-11-05T09:47:06.574Z,10.30
2018-11-05T09:49:41.013Z,10.63
2018-11-05T09:52:15.464Z,7.80
2018-11-05T09:54:50.065Z,8.80
2018-11-05T09:57:24.677Z,11.30
2018-11-05T09:59:59.107Z,8.57
2018-11-05T10:02:39.244Z,7.90
2018-11-05T10:05:14.805Z,10.50
2018-11-05T10:07:48.786Z,7.80
2018-11-05T10:10:23.589Z,7.30
2018-11-05T10:12:58.039Z,8.33
2018-11-05T10:15:33.155Z,7.47
2018-11-05T10:18:08.260Z,8.27
2018-11-05T10:20:42.813Z,6.80
2018-11-05T10:23:17.330Z,6.63
2018-11-05T10:25:52.021Z,14.70
2018-11-05T10:28:26.654Z,9.03
2018-11-05T10:31:01.295Z,8.00
2018-11-05T10:33:36.606Z,12.63
2018-11-05T10:36:11.498Z,14.07
2018-11-05T10:38:46.333Z,10.20
2018-11-05T10:41:21.363Z,8.83
2018-11-05T10:43:55.985Z,16.53
2018-11-05T10:46:30.550Z,16.83
2018-11-05T10:49:05.727Z,12.50
2018-11-05T10:51:40.734Z,12.03
2018-11-05T10:54:15.890Z,9.70
2018-11-05T10:56:50.806Z,12.93
2018-11-05T10:59:25.407Z,15.60
2018-11-05T11:02:05.472Z,11.03
2018-11-05T11:04:40.322Z,9.23
2018-11-05T11:07:14.909Z,13.13
2018-11-05T11:09:49.346Z,12.70
2018-11-05T11:12:23.759Z,9.33
2018-11-05T11:14:58.463Z,14.20
2018-11-05T11:17:33.279Z,12.23
2018-11-05T11:20:09.795Z,13.43
2018-11-05T11:22:44.305Z,13.63
2018-11-05T11:25:19.176Z,11.43
2018-11-05T11:27:53.733Z,8.60
2018-11-05T11:30:29.462Z,13.97
2018-11-05T11:33:06.352Z,12.70
2018-11-05T11:35:42.159Z,11.13
2018-11-05T11:38:18.061Z,12.83
2018-11-05T11:40:53.264Z,14.03
2018-11-05T11:43:28.053Z,13.47
2018-11-05T11:46:02.582Z,14.10
2018-11-05T11:48:37.341Z,12.67
2018-11-05T11:51:13.371Z,14.67
2018-11-05T11:53:47.977Z,12.80
2018-11-05T11:56:23.775Z,9.80
2018-11-05T11:58:58.874Z,10.10
2018-11-05T12:02:38.049Z,10.83
2018-11-05T12:05:13.551Z,10.20
2018-11-05T12:07:47.858Z,13.60
2018-11-05T12:10:23.754Z,10.27
2018-11-05T12:12:57.913Z,8.23
2018-11-05T12:15:32.860Z,10.00
2018-11-05T12:18:07.204Z,11.33
2018-11-05T12:20:41.773Z,8.50
2018-11-05T12:23:16.448Z,9.93
2018-11-05T12:25:51.096Z,9.50
2018-11-05T12:28:25.638Z,8.53
2018-11-05T12:31:00.409Z,9.70
2018-11-05T12:33:34.886Z,10.93
2018-11-05T12:36:09.389Z,15.93
2018-11-05T12:38:44.188Z,9.33
2018-11-05T12:41:18.765Z,11.63
2018-11-05T12:43:53.366Z,12.00
2018-11-05T12:46:27.787Z,9.83
2018-11-05T12:49:02.319Z,8.30
2018-11-05T12:51:36.974Z,14.57
2018-11-05T12:54:12.376Z,14.27
2018-11-05T12:56:47.221Z,7.53
2018-11-05T12:59:21.886Z,11.00
2018-11-05T13:01:58.497Z,9.90
2018-11-05T13:04:33.074Z,7.93
2018-11-05T13:07:07.697Z,18.27
2018-11-05T13:09:42.501Z,9.20
2018-11-05T13:12:16.803Z,9.13
2018-11-05T13:14:51.478Z,13.70
2018-11-05T13:17:25.972Z,11.13
2018-11-05T13:20:00.510Z,10.50
2018-11-05T13:22:35.100Z,11.50
2018-11-05T13:25:10.145Z,8.73
2018-11-05T13:27:45.683Z,13.90
2018-11-05T13:30:20.030Z,18.50
2018-11-05T13:32:54.558Z,11.23
2018-11-05T13:35:29.098Z,10.20
2018-11-05T13:38:04.568Z,13.03
2018-11-05T13:40:39.454Z,10.40
2018-11-05T13:43:13.686Z,15.10
2018-11-05T13:45:48.516Z,7.73
2018-11-05T13:48:23.704Z,11.90
2018-11-05T13:50:57.470Z,9.70
2018-11-05T13:53:31.933Z,12.20
2018-11-05T13:56:06.558Z,10.03
2018-11-05T13:58:41.018Z,11.57
2018-11-05T14:01:16.218Z,16.90
2018-11-05T14:03:51.099Z,10.80
2018-11-05T14:06:26.003Z,12.03
2018-11-05T14:09:00.666Z,16.13
2018-11-05T14:11:35.032Z,16.23
2018-11-05T14:14:09.544Z,15.03
2018-11-05T14:16:44.177Z,14.97
2018-11-05T14:19:19.117Z,15.00
2018-11-05T14:21:53.337Z,16.23
2018-11-05T14:24:28.001Z,18.70
2018-11-05T14:27:02.642Z,15.30
2018-11-05T14:29:37.788Z,22.53
2018-11-05T14:32:11.821Z,20.20
2018-11-05T14:34:46.281Z,17.67
2018-11-05T14:37:21.056Z,17.20
2018-11-05T14:39:55.330Z,13.40
2018-11-05T14:42:29.914Z,13.97
2018-11-05T14:45:07.013Z,16.40
2018-11-05T14:47:43.122Z,20.13
2018-11-05T14:50:18.965Z,15.47
2018-11-05T14:52:53.257Z,16.03
2018-11-05T14:55:27.803Z,18.97
2018-11-05T14:58:02.254Z,24.23
2018-11-05T15:00:36.890Z,18.80
2018-11-05T15:03:11.375Z,15.60
2018-11-05T15:05:45.868Z,16.17
2018-11-05T15:08:20.813Z,14.40
2018-11-05T15:10:55.585Z,14.63
2018-11-05T15:13:29.795Z,12.47
2018-11-05T15:16:04.538Z,15.03
2018-11-05T15:18:39.132Z,15.77
2018-11-05T15:21:13.629Z,15.47
2018-11-05T15:23:48.302Z,16.80
2018-11-05T15:26:22.741Z,15.00
2018-11-05T15:28:57.407Z,19.50
2018-11-05T15:31:31.902Z,14.13
2018-11-05T15:34:06.569Z,16.77
2018-11-05T15:36:41.066Z,19.03
2018-11-05T15:39:15.672Z,21.00
2018-11-05T15:41:50.337Z,15.80
2018-11-05T15:44:24.914Z,20.90
2018-11-05T15:46:59.395Z,17.10
2018-11-05T15:49:34.397Z,15.13
2018-11-05T15:52:09.904Z,17.73
2018-11-05T15:54:43.982Z,17.33
2018-11-05T15:57:18.408Z,17.33
2018-11-05T15:59:53.079Z,22.13
2018-11-05T16:02:27.753Z,18.00
2018-11-05T16:05:03.242Z,15.13
2018-11-05T16:07:37.885Z,15.53
2018-11-05T16:10:12.579Z,16.73
2018-11-05T16:12:47.643Z,20.73
2018-11-05T16:15:22.986Z,15.77
2018-11-05T16:17:57.930Z,19.57
2018-11-05T16:20:32.697Z,21.73
2018-11-05T16:23:07.393Z,19.17
2018-11-05T16:25:42.101Z,17.80
2018-11-05T16:28:17.547Z,17.90
2018-11-05T16:30:52.173Z,20.13
2018-11-05T16:33:27.035Z,29.30
2018-11-05T16:36:02.075Z,24.10
2018-11-05T16:38:37.336Z,19.83
2018-11-05T16:41:12.495Z,22.67
2018-11-05T16:43:48.433Z,21.73
2018-11-05T16:46:25.910Z,20.33
2018-11-05T16:49:00.562Z,23.60
2018-11-05T16:51:35.281Z,22.20
2018-11-05T16:54:09.832Z,17.63
2018-11-05T16:56:44.315Z,20.80
2018-11-05T16:59:19.385Z,24.17
2018-11-05T17:01:54.145Z,29.57
2018-11-05T17:04:28.364Z,26.20
2018-11-05T17:09:38.683Z,10.63
2018-11-05T17:12:14.009Z,8.37
2018-11-05T17:14:48.462Z,7.97
2018-11-05T17:17:23.262Z,14.87
2018-11-05T17:19:57.695Z,6.00
2018-11-05T17:22:32.171Z,12.33
2018-11-05T17:25:07.434Z,8.57
2018-11-05T17:27:42.907Z,7.40
2018-11-05T17:30:20.455Z,5.80
2018-11-05T17:32:55.569Z,4.97
2018-11-05T17:35:30.113Z,4.40
2018-11-05T17:38:05.327Z,7.13
2018-11-05T17:40:41.796Z,6.07
2018-11-05T17:43:17.494Z,7.17
2018-11-05T17:45:52.331Z,8.30
2018-11-05T17:48:27.122Z,5.20
2018-11-05T17:51:01.507Z,4.03
2018-11-05T17:53:36.732Z,6.57
2018-11-05T17:56:11.646Z,3.50
2018-11-05T17:58:47.250Z,2.20
2018-11-05T18:01:21.713Z,5.10
2018-11-05T18:03:56.507Z,3.63
2018-11-05T18:06:32.280Z,6.63
2018-11-05T18:09:09.666Z,7.50
2018-11-05T18:11:44.034Z,4.23
2018-11-05T18:14:19.198Z,7.93
2018-11-05T18:16:55.506Z,5.97
2018-11-05T18:19:30.014Z,4.70
2018-11-05T18:22:07.743Z,4.50
2018-11-05T18:24:43.338Z,7.30
2018-11-05T18:27:19.284Z,6.33
2018-11-05T18:29:53.751Z,5.87
2018-11-05T18:32:28.379Z,6.53
2018-11-05T18:35:05.123Z,6.00
2018-11-05T18:37:39.750Z,6.13
2018-11-05T18:40:15.235Z,5.33
2018-11-05T18:42:50.268Z,4.20
2018-11-05T18:45:25.376Z,5.33
2018-11-05T18:48:00.366Z,5.40
2018-11-05T18:50:34.814Z,4.30
2018-11-05T18:53:10.127Z,6.03
2018-11-05T18:55:49.334Z,4.90
2018-11-05T18:58:25.766Z,9.67
2018-11-05T19:01:00.092Z,6.13
2018-11-05T19:03:34.670Z,6.97
2018-11-05T19:06:09.556Z,3.50
2018-11-05T19:08:43.756Z,4.87
2018-11-05T19:11:20.217Z,6.17
2018-11-05T19:13:54.657Z,4.60
2018-11-05T19:16:29.306Z,9.90
2018-11-05T19:19:04.804Z,5.40
2018-11-05T19:21:40.317Z,14.57
2018-11-05T19:24:14.983Z,6.30
2018-11-05T19:26:49.868Z,7.33
2018-11-05T19:29:24.195Z,5.10
2018-11-05T19:32:00.458Z,4.60
2018-11-05T19:34:35.356Z,5.17
2018-11-05T19:37:10.531Z,5.40
2018-11-05T19:39:45.352Z,5.83
2018-11-05T19:42:20.234Z,8.00
2018-11-05T19:44:55.327Z,4.70
2018-11-05T19:47:30.326Z,5.73
2018-11-05T19:50:08.030Z,5.20
2018-11-05T19:52:46.723Z,4.03
2018-11-05T19:55:21.233Z,6.70
2018-11-05T19:57:57.874Z,5.70
2018-11-05T20:00:32.927Z,7.93
2018-11-05T20:03:07.939Z,4.90
2018-11-05T20:05:42.982Z,9.80
2018-11-05T20:08:17.798Z,15.70
2018-11-05T20:10:53.042Z,15.90
2018-11-05T20:13:27.819Z,14.77
2018-11-05T20:16:03.530Z,11.70
2018-11-05T20:18:37.883Z,9.77
2018-11-05T20:21:12.445Z,7.93
2018-11-05T20:23:47.782Z,7.73
2018-11-05T20:26:22.741Z,7.80
2018-11-05T20:28:58.639Z,8.13
2018-11-05T20:31:41.370Z,9.80
2018-11-05T20:34:16.241Z,7.97
2018-11-05T20:36:51.983Z,7.87
2018-11-05T20:39:26.326Z,7.37
2018-11-05T20:42:00.918Z,8.20
2018-11-05T20:44:35.406Z,6.80
2018-11-05T20:47:10.017Z,9.10
2018-11-05T20:49:45.097Z,6.50
2018-11-05T20:52:20.854Z,5.87
2018-11-05T20:54:56.265Z,3.73
2018-11-05T20:57:31.446Z,2.70
2018-11-05T21:00:09.481Z,5.57
2018-11-05T21:02:43.881Z,6.10
2018-11-05T21:05:18.368Z,3.40
2018-11-05T21:07:53.049Z,3.70
2018-11-05T21:10:27.262Z,3.43
2018-11-05T21:13:01.817Z,5.10
2018-11-05T21:15:36.408Z,4.77
2018-11-05T21:18:14.453Z,5.63
2018-11-05T21:20:51.494Z,3.30
2018-11-05T21:23:26.158Z,2.23
2018-11-05T21:26:01.483Z,3.30
2018-11-05T21:28:36.525Z,2.60
2018-11-05T21:31:12.559Z,1.97
2018-11-05T21:33:47.522Z,2.50
2018-11-05T21:36:22.232Z,1.80
2018-11-05T21:38:56.506Z,2.00
2018-11-05T21:41:31.127Z,4.10
2018-11-05T21:44:06.634Z,5.40
2018-11-05T21:46:41.922Z,5.37
2018-11-05T21:49:17.354Z,3.03
2018-11-05T21:51:53.681Z,2.17
2018-11-05T21:54:28.016Z,2.40
2018-11-05T21:57:04.003Z,3.30
2018-11-05T21:59:40.062Z,3.67
2018-11-05T22:02:14.842Z,3.40
2018-11-05T22:04:49.450Z,2.53
2018-11-05T22:07:23.887Z,2.77
2018-11-05T22:09:58.189Z,3.90
2018-11-05T22:12:34.666Z,3.20
2018-11-05T22:15:09.251Z,2.70
2018-11-05T22:17:43.820Z,3.50
2018-11-05T22:20:18.153Z,3.20
2018-11-05T22:22:52.539Z,2.33
2018-11-05T22:25:26.900Z,2.60
2018-11-05T22:28:02.745Z,2.63
2018-11-05T22:30:37.533Z,4.07
2018-11-05T22:33:11.895Z,3.10
2018-11-05T22:35:46.689Z,3.07
2018-11-05T22:38:23.903Z,3.70
2018-11-05T22:40:58.705Z,2.60
2018-11-05T22:43:33.307Z,3.40
2018-11-05T22:48:49.242Z,15.27
2018-11-05T22:51:25.165Z,10.23
2018-11-05T22:54:00.945Z,7.50
2018-11-05T22:56:35.557Z,6.90
2018-11-05T22:59:10.188Z,4.50
2018-11-05T23:01:50.474Z,3.13
2018-11-05T23:04:25.190Z,3.27
2018-11-05T23:07:00.154Z,2.70
2018-11-05T23:09:34.540Z,4.80
2018-11-05T23:12:09.007Z,3.77
2018-11-05T23:14:43.433Z,3.27
2018-11-05T23:17:18.263Z,5.67
2018-11-05T23:19:52.536Z,2.77
2018-11-05T23:22:27.225Z,3.30
2018-11-05T23:25:01.846Z,2.80
2018-11-05T23:27:36.235Z,2.73
2018-11-05T23:30:12.479Z,2.90
2018-11-05T23:32:47.450Z,2.60
2018-11-05T23:35:21.984Z,2.60
2018-11-05T23:37:56.722Z,4.20
2018-11-05T23:40:31.385Z,3.70
2018-11-05T23:43:06.535Z,2.97
2018-11-05T23:45:41.208Z,3.30
2018-11-05T23:48:15.611Z,5.13
2018-11-05T23:50:50.202Z,2.50
2018-11-05T23:53:24.733Z,3.03
2018-11-05T23:55:59.510Z,2.80
2018-11-05T23:58:33.738Z,2.87
